createdAt,value
2023-05-06T00:03:27.518Z,61.34
2023-05-06T00:07:36.701Z,61.34
2023-05-06T00:11:46.310Z,60.82
2023-05-06T00:15:55.698Z,58.10
2023-05-06T00:20:05.202Z,56.50
2023-05-06T00:24:14.810Z,56.27
2023-05-06T00:28:16.992Z,56.52
2023-05-06T00:32:26.491Z,56.82
2023-05-06T00:36:35.915Z,56.85
2023-05-06T00:40:36.541Z,57.08
2023-05-06T00:44:46.134Z,57.05
2023-05-06T01:04:19.678Z,57.44
2023-05-06T01:08:47.246Z,57.02
2023-05-06T01:20:16.607Z,56.61
2023-05-06T01:24:32.311Z,56.38
2023-05-06T01:28:40.962Z,56.40
2023-05-06T01:32:48.640Z,56.54
2023-05-06T01:37:03.930Z,56.76
2023-05-06T01:41:12.174Z,56.78
2023-05-06T01:45:21.602Z,56.88
2023-05-06T01:49:25.061Z,56.79
2023-05-06T01:53:17.242Z,56.66
2023-05-06T01:57:17.993Z,56.59
2023-05-06T02:01:18.104Z,56.73
2023-05-06T02:05:13.939Z,56.90
2023-05-06T02:09:23.404Z,56.82
2023-05-06T02:13:25.172Z,56.70
2023-05-06T02:17:34.582Z,56.72
2023-05-06T02:21:44.176Z,56.86
2023-05-06T02:25:54.548Z,56.91
2023-05-06T02:30:02.789Z,56.85
2023-05-06T02:33:34.739Z,56.87
2023-05-06T02:37:24.187Z,56.82
2023-05-06T02:41:24.066Z,56.78
2023-05-06T02:45:33.695Z,56.68
2023-05-06T02:49:43.559Z,56.79
2023-05-06T02:53:53.410Z,56.74
2023-05-06T02:58:02.853Z,56.84
2023-05-06T03:02:12.354Z,57.05
2023-05-06T03:06:21.906Z,57.07
2023-05-06T03:10:30.342Z,57.05
2023-05-06T03:14:05.513Z,57.27
2023-05-06T03:18:14.854Z,57.36
2023-05-06T03:21:55.594Z,57.45
2023-05-06T03:25:47.028Z,57.43
2023-05-06T03:29:41.031Z,57.47
2023-05-06T03:33:50.095Z,57.46
2023-05-06T03:37:31.866Z,57.74
2023-05-06T03:41:41.532Z,57.90
2023-05-06T03:45:51.037Z,57.86
2023-05-06T03:50:00.502Z,57.77
2023-05-06T03:54:09.979Z,57.94
2023-05-06T03:58:19.618Z,58.02
2023-05-06T04:02:22.776Z,57.98
2023-05-06T04:06:32.422Z,57.93
2023-05-06T04:10:17.461Z,57.77
2023-05-06T04:14:19.549Z,57.74
2023-05-06T04:18:28.830Z,57.75
2023-05-06T04:21:58.871Z,57.94
2023-05-06T04:26:04.922Z,58.03
2023-05-06T04:30:06.995Z,58.15
2023-05-06T04:34:16.650Z,58.15
2023-05-06T04:38:25.847Z,58.15
2023-05-06T04:42:21.038Z,58.10
2023-05-06T04:46:21.607Z,57.93
2023-05-06T04:50:21.095Z,57.80
2023-05-06T04:54:30.786Z,57.64
2023-05-06T04:58:20.382Z,57.67
2023-05-06T05:02:30.122Z,57.49
2023-05-06T05:06:39.687Z,57.50
2023-05-06T05:10:32.727Z,57.49
2023-05-06T05:14:26.561Z,57.42
2023-05-06T05:17:49.140Z,57.54
2023-05-06T05:21:32.885Z,57.51
2023-05-06T05:25:42.551Z,57.66
2023-05-06T05:29:40.996Z,57.77
2023-05-06T05:33:51.173Z,57.84
2023-05-06T05:38:00.764Z,57.94
2023-05-06T05:42:10.385Z,57.89
2023-05-06T05:46:19.923Z,57.94
2023-05-06T05:50:06.216Z,58.00
2023-05-06T05:53:48.119Z,57.98
2023-05-06T05:57:33.292Z,57.86
2023-05-06T06:01:42.654Z,57.61
2023-05-06T06:05:35.528Z,57.43
2023-05-06T06:09:13.353Z,57.37
2023-05-06T06:12:28.416Z,57.49
2023-05-06T06:16:25.155Z,57.94
2023-05-06T06:20:34.666Z,57.97
2023-05-06T06:24:29.489Z,58.08
2023-05-06T06:28:27.985Z,58.12
2023-05-06T06:31:49.202Z,57.96
2023-05-06T06:35:22.928Z,58.00
2023-05-06T06:38:45.853Z,57.90
2023-05-06T06:42:55.602Z,57.90
2023-05-06T06:46:56.758Z,57.92
2023-05-06T06:51:06.564Z,57.92
2023-05-06T06:55:05.249Z,57.92
2023-05-06T06:58:58.019Z,58.14
2023-05-06T07:02:54.736Z,58.30
2023-05-06T07:06:51.275Z,58.40
2023-05-06T07:09:57.949Z,58.33
2023-05-06T07:13:51.796Z,58.31
2023-05-06T07:17:41.409Z,58.36
2023-05-06T07:21:09.591Z,58.43
2023-05-06T07:24:34.685Z,58.46
2023-05-06T07:28:40.286Z,58.29
2023-05-06T07:32:29.590Z,58.19
2023-05-06T07:36:01.488Z,58.15
2023-05-06T07:39:13.069Z,58.22
2023-05-06T07:43:05.701Z,58.19
2023-05-06T07:47:00.355Z,58.16
2023-05-06T07:50:32.488Z,58.24
2023-05-06T07:54:09.902Z,58.31
2023-05-06T07:57:58.170Z,58.32
2023-05-06T08:01:57.521Z,58.56
2023-05-06T08:05:41.701Z,58.77
2023-05-06T08:09:22.374Z,59.04
2023-05-06T08:12:46.637Z,58.92
2023-05-06T08:16:56.094Z,58.81
2023-05-06T08:21:05.642Z,58.72
2023-05-06T08:24:37.783Z,58.83
2023-05-06T08:28:47.267Z,59.03
2023-05-06T08:32:42.209Z,59.05
2023-05-06T08:36:34.159Z,59.05
2023-05-06T08:40:38.061Z,58.71
2023-05-06T08:44:16.736Z,58.65
2023-05-06T08:48:26.158Z,58.52
2023-05-06T08:52:35.318Z,58.47
2023-05-06T08:56:28.514Z,58.39
2023-05-06T09:00:01.273Z,58.19
2023-05-06T09:04:03.133Z,57.96
2023-05-06T09:07:18.718Z,57.76
2023-05-06T09:11:14.080Z,57.90
2023-05-06T09:14:57.144Z,57.67
2023-05-06T09:18:38.075Z,57.66
2023-05-06T09:22:16.640Z,57.48
2023-05-06T09:26:16.175Z,57.29
2023-05-06T09:30:06.067Z,57.09
2023-05-06T09:33:53.052Z,57.03
2023-05-06T09:36:58.882Z,57.05
2023-05-06T09:40:29.998Z,56.80
2023-05-06T09:44:24.212Z,56.61
2023-05-06T09:47:58.461Z,55.96
2023-05-06T09:51:39.947Z,55.62
2023-05-06T09:55:31.729Z,55.10
2023-05-06T09:58:49.974Z,54.69
2023-05-06T10:02:25.887Z,53.94
2023-05-06T10:06:12.317Z,54.07
2023-05-06T10:09:53.909Z,54.01
2023-05-06T10:13:56.572Z,53.69
2023-05-06T10:17:16.901Z,53.44
2023-05-06T10:21:19.185Z,53.13
2023-05-06T10:25:02.525Z,53.09
2023-05-06T10:29:01.808Z,53.86
2023-05-06T10:32:40.850Z,54.66
2023-05-06T10:36:52.783Z,55.48
2023-05-06T10:40:36.936Z,55.87
2023-05-06T10:44:06.383Z,56.62
2023-05-06T10:48:02.896Z,56.64
2023-05-06T10:51:42.857Z,56.89
2023-05-06T10:55:37.249Z,56.97
2023-05-06T10:59:12.540Z,56.80
2023-05-06T11:03:04.648Z,56.85
2023-05-06T11:07:22.003Z,56.70
2023-05-06T11:11:34.510Z,56.64
2023-05-06T11:14:41.919Z,56.72
2023-05-06T11:18:29.259Z,56.76
2023-05-06T11:22:19.300Z,57.00
2023-05-06T11:25:20.604Z,57.50
2023-05-06T11:29:20.523Z,57.71
2023-05-06T11:32:48.535Z,58.03
2023-05-06T11:36:37.199Z,58.07
2023-05-06T11:40:28.003Z,58.47
2023-05-06T11:43:50.113Z,58.79
2023-05-06T11:47:28.798Z,58.84
2023-05-06T11:51:23.800Z,58.88
2023-05-06T11:55:13.091Z,58.73
2023-05-06T11:59:10.763Z,58.86
2023-05-06T12:03:17.205Z,58.96
2023-05-06T12:07:35.736Z,58.93
2023-05-06T12:11:45.189Z,58.90
2023-05-06T12:15:07.970Z,58.78
2023-05-06T12:18:50.444Z,58.79
2023-05-06T12:22:23.376Z,58.90
2023-05-06T12:26:34.324Z,58.79
2023-05-06T12:29:56.082Z,58.92
2023-05-06T12:33:50.239Z,58.82
2023-05-06T12:38:08.626Z,58.96
2023-05-06T12:42:23.865Z,59.05
2023-05-06T12:46:45.570Z,59.14
2023-05-06T12:50:27.195Z,58.99
2023-05-06T12:54:13.618Z,59.08
2023-05-06T12:57:58.001Z,59.04
2023-05-06T13:01:32.198Z,58.82
2023-05-06T13:05:32.976Z,58.66
2023-05-06T13:09:15.438Z,58.63
2023-05-06T13:13:09.994Z,58.60
2023-05-06T13:16:13.148Z,58.51
2023-05-06T13:19:32.502Z,58.57
2023-05-06T13:23:01.683Z,58.46
2023-05-06T13:26:44.295Z,58.33
2023-05-06T13:30:15.391Z,58.31
2023-05-06T13:34:02.912Z,58.19
2023-05-06T13:37:24.744Z,57.95
2023-05-06T13:41:34.213Z,58.00
2023-05-06T13:45:26.871Z,57.84
2023-05-06T13:49:20.605Z,57.56
2023-05-06T13:52:45.819Z,57.53
2023-05-06T13:56:16.921Z,57.23
2023-05-06T14:00:22.531Z,57.19
2023-05-06T14:04:08.257Z,57.22
2023-05-06T14:08:18.110Z,57.04
2023-05-06T14:12:20.072Z,56.91
2023-05-06T14:16:29.583Z,56.81
2023-05-06T14:20:06.771Z,56.49
2023-05-06T14:24:17.440Z,56.19
2023-05-06T14:28:26.931Z,55.88
2023-05-06T14:32:35.069Z,55.56
2023-05-06T14:36:20.785Z,55.26
2023-05-06T14:40:03.495Z,55.02
2023-05-06T14:43:59.613Z,54.92
2023-05-06T14:47:59.076Z,54.32
2023-05-06T14:51:32.833Z,53.79
2023-05-06T14:55:27.556Z,53.15
2023-05-06T14:59:36.963Z,52.61
2023-05-06T15:03:30.483Z,52.31
2023-05-06T15:06:53.707Z,52.22
2023-05-06T15:10:55.732Z,51.52
2023-05-06T15:14:24.552Z,51.13
2023-05-06T15:18:03.841Z,50.83
2023-05-06T15:21:33.088Z,50.92
2023-05-06T15:25:35.051Z,50.32
2023-05-06T15:30:47.624Z,50.22
2023-05-06T15:33:46.763Z,49.96
2023-05-06T15:36:58.927Z,49.97
2023-05-06T15:42:06.789Z,50.23
2023-05-06T15:44:40.513Z,50.26
2023-05-06T15:47:55.444Z,49.91
2023-05-06T15:50:39.609Z,49.90
2023-05-06T15:54:41.202Z,49.90
2023-05-06T15:57:36.574Z,49.63
2023-05-06T16:00:50.212Z,49.25
2023-05-06T16:04:31.791Z,49.26
2023-05-06T16:08:14.284Z,49.28
2023-05-06T16:12:20.453Z,49.60
2023-05-06T16:15:52.819Z,48.20
2023-05-06T16:19:29.501Z,47.48
2023-05-06T16:23:13.674Z,47.23
2023-05-06T16:26:19.366Z,46.90
2023-05-06T16:29:34.370Z,46.73
2023-05-06T16:33:16.083Z,46.77
2023-05-06T16:36:41.573Z,46.49
2023-05-06T16:40:29.966Z,47.08
2023-05-06T16:44:26.167Z,46.89
2023-05-06T16:48:26.363Z,46.58
2023-05-06T16:52:30.053Z,46.57
2023-05-06T16:56:28.232Z,46.78
2023-05-06T17:00:16.677Z,46.79
2023-05-06T17:03:48.979Z,46.64
2023-05-06T17:07:06.055Z,46.62
2023-05-06T17:11:15.455Z,47.33
2023-05-06T17:15:25.206Z,47.49
2023-05-06T17:19:16.030Z,47.78
2023-05-06T17:23:00.241Z,47.48
2023-05-06T17:26:02.895Z,48.15
2023-05-06T17:29:44.193Z,48.14
2023-05-06T17:33:32.166Z,48.40
2023-05-06T17:37:05.266Z,48.66
2023-05-06T17:40:34.480Z,49.02
2023-05-06T17:44:42.826Z,49.38
2023-05-06T17:48:53.203Z,49.82
2023-05-06T17:53:02.327Z,50.20
2023-05-06T17:56:53.060Z,50.52
2023-05-06T18:00:18.658Z,50.77
2023-05-06T18:04:28.249Z,51.16
2023-05-06T18:08:36.244Z,51.38
2023-05-06T18:12:45.091Z,52.14
2023-05-06T18:16:29.909Z,52.52
2023-05-06T18:20:39.780Z,52.81
2023-05-06T18:24:49.399Z,52.87
2023-05-06T18:29:00.381Z,53.67
2023-05-06T18:32:38.544Z,53.56
2023-05-06T18:36:39.078Z,54.38
2023-05-06T18:40:48.736Z,54.65
2023-05-06T18:44:58.362Z,55.35
2023-05-06T18:49:07.994Z,55.63
2023-05-06T18:53:17.899Z,55.80
2023-05-06T18:57:27.498Z,56.45
2023-05-06T19:01:37.179Z,56.82
2023-05-06T19:05:37.712Z,56.98
2023-05-06T19:09:37.237Z,57.55
2023-05-06T19:13:47.171Z,57.61
2023-05-06T19:17:57.142Z,58.17
2023-05-06T19:22:07.040Z,58.58
2023-05-06T19:26:15.566Z,58.74
2023-05-06T19:30:25.013Z,58.62
2023-05-06T19:34:11.353Z,59.05
2023-05-06T19:38:13.387Z,59.41
2023-05-06T19:42:23.324Z,59.48
2023-05-06T19:46:33.120Z,60.32
2023-05-06T19:50:23.147Z,60.74
2023-05-06T19:54:32.922Z,61.21
2023-05-06T19:58:42.799Z,62.58
2023-05-06T20:02:52.527Z,62.39
2023-05-06T20:07:02.075Z,63.20
2023-05-06T20:11:11.468Z,62.24
2023-05-06T20:13:43.613Z,61.89
2023-05-06T20:17:17.635Z,61.31
2023-05-06T20:21:27.362Z,60.45
2023-05-06T20:25:05.523Z,60.32
2023-05-06T20:29:15.160Z,59.98
2023-05-06T20:33:24.659Z,59.04
2023-05-06T20:37:28.116Z,59.48
2023-05-06T20:41:17.626Z,60.51
2023-05-06T20:44:48.582Z,61.93
2023-05-06T20:48:32.394Z,63.88
2023-05-06T20:52:41.734Z,64.28
2023-05-06T20:56:53.039Z,63.93
2023-05-06T21:01:03.040Z,64.13
2023-05-06T21:05:01.095Z,63.99
2023-05-06T21:09:10.546Z,63.75
2023-05-06T21:13:18.951Z,63.72
2023-05-06T21:17:29.035Z,63.71
2023-05-06T21:21:38.370Z,63.56
2023-05-06T21:25:19.122Z,63.36
2023-05-06T21:29:28.556Z,63.03
2023-05-06T21:33:38.187Z,62.87
2023-05-06T21:37:47.638Z,62.79
2023-05-06T21:41:57.121Z,62.45
2023-05-06T21:45:46.738Z,62.04
2023-05-06T21:49:56.351Z,61.57
2023-05-06T21:54:05.847Z,61.34
2023-05-06T21:58:15.840Z,61.12
2023-05-06T22:01:56.047Z,60.88
2023-05-06T22:06:05.742Z,60.68
2023-05-06T22:10:17.174Z,60.25
2023-05-06T22:14:16.150Z,58.84
2023-05-06T22:18:26.522Z,58.06
2023-05-06T22:22:36.123Z,58.21
2023-05-06T22:26:45.592Z,58.65
2023-05-06T22:30:55.057Z,59.23
2023-05-06T22:34:58.461Z,59.67
2023-05-06T22:39:04.766Z,59.99
2023-05-06T22:43:14.171Z,60.26
2023-05-06T22:46:48.010Z,60.62
2023-05-06T22:50:22.114Z,61.29
2023-05-06T22:54:24.210Z,61.17
2023-05-06T22:58:33.443Z,61.28
2023-05-06T23:02:35.506Z,62.80
2023-05-06T23:06:45.064Z,63.58
2023-05-06T23:10:54.957Z,63.39
2023-05-06T23:15:03.444Z,62.92
2023-05-06T23:19:13.021Z,62.46
2023-05-06T23:23:22.466Z,62.04
2023-05-06T23:27:32.047Z,61.67
2023-05-06T23:31:27.662Z,61.53
2023-05-06T23:35:37.373Z,61.27
2023-05-06T23:39:29.527Z,60.91
2023-05-06T23:43:39.131Z,60.62
2023-05-06T23:47:48.693Z,60.33
2023-05-06T23:51:58.249Z,58.82
2023-05-06T23:56:08.255Z,58.00
